sensor_id;sensor_type;location;lat;lon;timestamp;pressure;altitude;pressure_sealevel;temperature;humidity
63881;BME280;50046;46.672;11.152;2022-07-29T00:00:10;98314.09;;;18.23;79.83
63881;BME280;50046;46.672;11.152;2022-07-29T00:00:21;98310.53;;;18.22;80.16
63881;BME280;50046;46.672;11.152;2022-07-29T00:00:31;98315.19;;;18.22;80.40
63881;BME280;50046;46.672;11.152;2022-07-29T00:00:41;98319.22;;;18.24;80.42
63881;BME280;50046;46.672;11.152;2022-07-29T00:00:54;98313.75;;;18.24;80.64
63881;BME280;50046;46.672;11.152;2022-07-29T00:01:04;98316.81;;;18.23;80.52
63881;BME280;50046;46.672;11.152;2022-07-29T00:01:15;98321.47;;;18.22;80.63
63881;BME280;50046;46.672;11.152;2022-07-29T00:01:26;98308.41;;;18.19;80.60
63881;BME280;50046;46.672;11.152;2022-07-29T00:01:38;98315.19;;;18.22;80.22
63881;BME280;50046;46.672;11.152;2022-07-29T00:01:49;98309.72;;;18.22;80.20
63881;BME280;50046;46.672;11.152;2022-07-29T00:02:02;98316.81;;;18.23;80.30
63881;BME280;50046;46.672;11.152;2022-07-29T00:02:12;98320.38;;;18.23;80.71
63881;BME280;50046;46.672;11.152;2022-07-29T00:02:23;98309.94;;;18.25;80.82
63881;BME280;50046;46.672;11.152;2022-07-29T00:02:33;98311.53;;;18.27;80.24
63881;BME280;50046;46.672;11.152;2022-07-29T00:02:44;98312.34;;;18.27;80.35
63881;BME280;50046;46.672;11.152;2022-07-29T00:02:54;98312.34;;;18.27;80.29
63881;BME280;50046;46.672;11.152;2022-07-29T00:03:05;98322.19;;;18.28;80.51
63881;BME280;50046;46.672;11.152;2022-07-29T00:03:15;98318.31;;;18.29;80.67
63881;BME280;50046;46.672;11.152;2022-07-29T00:03:25;98315.59;;;18.29;80.79
63881;BME280;50046;46.672;11.152;2022-07-29T00:03:36;98322.19;;;18.28;80.75
63881;BME280;50046;46.672;11.152;2022-07-29T00:03:47;98317.53;;;18.29;81.14
63881;BME280;50046;46.672;11.152;2022-07-29T00:03:58;98317.53;;;18.29;80.66
63881;BME280;50046;46.672;11.152;2022-07-29T00:04:08;98315.59;;;18.29;80.76
63881;BME280;50046;46.672;11.152;2022-07-29T00:04:19;98317.19;;;18.30;81.11
63881;BME280;50046;46.672;11.152;2022-07-29T00:04:29;98318.31;;;18.29;80.57
63881;BME280;50046;46.672;11.152;2022-07-29T00:04:40;98321.34;;;18.28;80.88
63881;BME280;50046;46.672;11.152;2022-07-29T00:04:50;98319.44;;;18.28;80.49
63881;BME280;50046;46.672;11.152;2022-07-29T00:05:01;98326.00;;;18.27;80.78
63881;BME280;50046;46.672;11.152;2022-07-29T00:05:12;98320.25;;;18.29;81.07
63881;BME280;50046;46.672;11.152;2022-07-29T00:05:23;98329.25;;;18.29;80.65
63881;BME280;50046;46.672;11.152;2022-07-29T00:05:34;98321.06;;;18.29;81.05
63881;BME280;50046;46.672;11.152;2022-07-29T00:05:44;98319.44;;;18.28;80.90
63881;BME280;50046;46.672;11.152;2022-07-29T00:05:55;98326.41;;;18.34;80.54
63881;BME280;50046;46.672;11.152;2022-07-29T00:06:05;98325.28;;;18.35;80.76
63881;BME280;50046;46.672;11.152;2022-07-29T00:06:16;98322.75;;;18.39;80.51
63881;BME280;50046;46.672;11.152;2022-07-29T00:06:26;98319.22;;;18.38;80.93
63881;BME280;50046;46.672;11.152;2022-07-29T00:06:36;98320.84;;;18.39;80.60
63881;BME280;50046;46.672;11.152;2022-07-29T00:06:47;98320.84;;;18.39;80.72
63881;BME280;50046;46.672;11.152;2022-07-29T00:06:57;98324.69;;;18.38;80.81
63881;BME280;50046;46.672;11.152;2022-07-29T00:07:08;98319.53;;;18.37;80.98
63881;BME280;50046;46.672;11.152;2022-07-29T00:07:18;98316.50;;;18.38;80.62
63881;BME280;50046;46.672;11.152;2022-07-29T00:07:28;98321.97;;;18.38;81.03
63881;BME280;50046;46.672;11.152;2022-07-29T00:07:39;98326.13;;;18.36;81.11
63881;BME280;50046;46.672;11.152;2022-07-29T00:07:51;98318.22;;;18.34;81.67
63881;BME280;50046;46.672;11.152;2022-07-29T00:08:01;98319.34;;;18.33;81.29
63881;BME280;50046;46.672;11.152;2022-07-29T00:08:12;98324.81;;;18.33;82.20
63881;BME280;50046;46.672;11.152;2022-07-29T00:08:22;98321.84;;;18.30;81.99
63881;BME280;50046;46.672;11.152;2022-07-29T00:08:32;98324.09;;;18.28;81.69
63881;BME280;50046;46.672;11.152;2022-07-29T00:08:43;98316.50;;;18.24;81.51
63881;BME280;50046;46.672;11.152;2022-07-29T00:08:53;98316.81;;;18.23;81.47
63881;BME280;50046;46.672;11.152;2022-07-29T00:09:04;98323.09;;;18.23;81.78
63881;BME280;50046;46.672;11.152;2022-07-29T00:09:14;98321.47;;;18.22;82.16
63881;BME280;50046;46.672;11.152;2022-07-29T00:09:25;98322.28;;;18.23;82.58
63881;BME280;50046;46.672;11.152;2022-07-29T00:09:35;98314.69;;;18.20;82.95
63881;BME280;50046;46.672;11.152;2022-07-29T00:09:46;98322.88;;;18.20;83.12
63881;BME280;50046;46.672;11.152;2022-07-29T00:09:56;98321.56;;;18.17;83.21
63881;BME280;50046;46.672;11.152;2022-07-29T00:10:07;98318.34;;;18.15;83.20
63881;BME280;50046;46.672;11.152;2022-07-29T00:10:17;98321.09;;;18.15;83.75
63881;BME280;50046;46.672;11.152;2022-07-29T00:10:28;98320.25;;;18.15;83.69
63881;BME280;50046;46.672;11.152;2022-07-29T00:10:38;98318.34;;;18.15;83.99
63881;BME280;50046;46.672;11.152;2022-07-29T00:10:49;98319.66;;;18.18;83.63
63881;BME280;50046;46.672;11.152;2022-07-29T00:11:00;98323.50;;;18.17;83.82
63881;BME280;50046;46.672;11.152;2022-07-29T00:11:10;98314.78;;;18.15;83.71
63881;BME280;50046;46.672;11.152;2022-07-29T00:11:20;98320.56;;;18.13;83.60
63881;BME280;50046;46.672;11.152;2022-07-29T00:11:31;98317.84;;;18.13;83.65
63881;BME280;50046;46.672;11.152;2022-07-29T00:11:41;98321.66;;;18.12;83.67
63881;BME280;50046;46.672;11.152;2022-07-29T00:11:52;98315.41;;;18.12;83.70
63881;BME280;50046;46.672;11.152;2022-07-29T00:12:03;98326.66;;;18.10;83.84
63881;BME280;50046;46.672;11.152;2022-07-29T00:12:13;98322.00;;;18.11;83.82
63881;BME280;50046;46.672;11.152;2022-07-29T00:12:24;98316.81;;;18.09;83.77
63881;BME280;50046;46.672;11.152;2022-07-29T00:12:35;98319.56;;;18.09;83.95
63881;BME280;50046;46.672;11.152;2022-07-29T00:12:46;98320.69;;;18.08;83.84
63881;BME280;50046;46.672;11.152;2022-07-29T00:12:56;98316.81;;;18.09;83.85
63881;BME280;50046;46.672;11.152;2022-07-29T00:13:07;98319.88;;;18.08;84.03
63881;BME280;50046;46.672;11.152;2022-07-29T00:13:17;98319.03;;;18.07;83.97
63881;BME280;50046;46.672;11.152;2022-07-29T00:13:28;98315.50;;;18.07;84.34
63881;BME280;50046;46.672;11.152;2022-07-29T00:13:38;98322.91;;;18.06;84.25
63881;BME280;50046;46.672;11.152;2022-07-29T00:13:49;98311.47;;;18.04;84.30
63881;BME280;50046;46.672;11.152;2022-07-29T00:13:59;98312.59;;;18.03;84.31
63881;BME280;50046;46.672;11.152;2022-07-29T00:14:10;98318.84;;;18.03;84.50
63881;BME280;50046;46.672;11.152;2022-07-29T00:14:20;98314.19;;;18.04;84.53
63881;BME280;50046;46.672;11.152;2022-07-29T00:14:30;98318.84;;;18.03;84.30
63881;BME280;50046;46.672;11.152;2022-07-29T00:14:41;98315.50;;;18.07;84.18
63881;BME280;50046;46.672;11.152;2022-07-29T00:14:55;98316.63;;;18.06;83.88
63881;BME280;50046;46.672;11.152;2022-07-29T00:15:06;98319.88;;;18.08;84.00
63881;BME280;50046;46.672;11.152;2022-07-29T00:15:17;98317.63;;;18.10;84.13
63881;BME280;50046;46.672;11.152;2022-07-29T00:15:27;98319.03;;;18.07;84.31
63881;BME280;50046;46.672;11.152;2022-07-29T00:15:38;98310.38;;;18.05;84.67
63881;BME280;50046;46.672;11.152;2022-07-29T00:15:48;98309.84;;;18.03;84.74
63881;BME280;50046;46.672;11.152;2022-07-29T00:15:59;98306.63;;;18.01;84.97
63881;BME280;50046;46.672;11.152;2022-07-29T00:16:09;98315.00;;;18.04;84.77
63881;BME280;50046;46.672;11.152;2022-07-29T00:16:19;98310.66;;;18.03;85.03
63881;BME280;50046;46.672;11.152;2022-07-29T00:16:30;98314.53;;;18.02;85.32
63881;BME280;50046;46.672;11.152;2022-07-29T00:16:40;98312.38;;;17.99;85.28
63881;BME280;50046;46.672;11.152;2022-07-29T00:16:51;98308.03;;;17.98;85.26
63881;BME280;50046;46.672;11.152;2022-07-29T00:17:01;98308.84;;;17.99;85.24
63881;BME280;50046;46.672;11.152;2022-07-29T00:17:12;98309.66;;;17.99;84.88
63881;BME280;50046;46.672;11.152;2022-07-29T00:17:23;98312.69;;;17.98;85.37
63881;BME280;50046;46.672;11.152;2022-07-29T00:17:33;98307.53;;;17.96;85.42
63881;BME280;50046;46.672;11.152;2022-07-29T00:17:44;98315.22;;;17.94;85.47
63881;BME280;50046;46.672;11.152;2022-07-29T00:17:54;98312.00;;;17.92;85.59
63881;BME280;50046;46.672;11.152;2022-07-29T00:18:05;98312.00;;;17.92;85.68
63881;BME280;50046;46.672;11.152;2022-07-29T00:18:15;98308.44;;;17.92;85.75
63881;BME280;50046;46.672;11.152;2022-07-29T00:18:26;98307.13;;;17.89;85.85
63881;BME280;50046;46.672;11.152;2022-07-29T00:18:36;98306.44;;;17.97;85.25
63881;BME280;50046;46.672;11.152;2022-07-29T00:18:46;98308.31;;;17.97;84.84
63881;BME280;50046;46.672;11.152;2022-07-29T00:18:57;98305.91;;;17.95;85.14
63881;BME280;50046;46.672;11.152;2022-07-29T00:19:10;98311.38;;;17.95;84.81
63881;BME280;50046;46.672;11.152;2022-07-29T00:19:20;98304.28;;;17.94;85.10
63881;BME280;50046;46.672;11.152;2022-07-29T00:19:31;98309.28;;;17.92;85.31
63881;BME280;50046;46.672;11.152;2022-07-29T00:19:41;98299.94;;;17.93;85.30
63881;BME280;50046;46.672;11.152;2022-07-29T00:19:52;98300.75;;;17.94;84.94
63881;BME280;50046;46.672;11.152;2022-07-29T00:20:03;98298.34;;;17.92;85.03
63881;BME280;50046;46.672;11.152;2022-07-29T00:20:14;98308.94;;;17.94;85.31
63881;BME280;50046;46.672;11.152;2022-07-29T00:20:24;98297.22;;;17.93;85.30
63881;BME280;50046;46.672;11.152;2022-07-29T00:20:35;98299.44;;;17.91;85.12
63881;BME280;50046;46.672;11.152;2022-07-29T00:20:45;98298.63;;;17.91;84.87
63881;BME280;50046;46.672;11.152;2022-07-29T00:20:55;98307.94;;;17.90;84.99
63881;BME280;50046;46.672;11.152;2022-07-29T00:21:06;98295.38;;;17.89;84.98
63881;BME280;50046;46.672;11.152;2022-07-29T00:21:16;98292.97;;;17.87;84.95
63881;BME280;50046;46.672;11.152;2022-07-29T00:21:27;98299.25;;;17.88;84.88
63881;BME280;50046;46.672;11.152;2022-07-29T00:21:37;98296.00;;;17.86;84.78
63881;BME280;50046;46.672;11.152;2022-07-29T00:21:47;98290.53;;;17.86;84.36
63881;BME280;50046;46.672;11.152;2022-07-29T00:21:58;98290.25;;;17.87;84.22
63881;BME280;50046;46.672;11.152;2022-07-29T00:22:08;98289.75;;;17.85;84.73
63881;BME280;50046;46.672;11.152;2022-07-29T00:22:20;98297.13;;;17.85;84.92
63881;BME280;50046;46.672;11.152;2022-07-29T00:22:30;98288.09;;;17.84;84.58
63881;BME280;50046;46.672;11.152;2022-07-29T00:22:41;98293.56;;;17.84;84.61
63881;BME280;50046;46.672;11.152;2022-07-29T00:22:52;98294.69;;;17.83;84.97
63881;BME280;50046;46.672;11.152;2022-07-29T00:23:03;98294.19;;;17.81;84.47
63881;BME280;50046;46.672;11.152;2022-07-29T00:23:13;98292.25;;;17.81;84.49
63881;BME280;50046;46.672;11.152;2022-07-29T00:23:24;98287.09;;;17.80;84.14
63881;BME280;50046;46.672;11.152;2022-07-29T00:23:34;98287.91;;;17.80;84.56
63881;BME280;50046;46.672;11.152;2022-07-29T00:23:44;98276.19;;;17.80;84.63
63881;BME280;50046;46.672;11.152;2022-07-29T00:23:55;98281.03;;;17.83;84.83
63881;BME280;50046;46.672;11.152;2022-07-29T00:24:05;98282.16;;;17.82;84.73
63881;BME280;50046;46.672;11.152;2022-07-29T00:24:16;98282.97;;;17.83;84.97
63881;BME280;50046;46.672;11.152;2022-07-29T00:24:26;98277.78;;;17.81;84.98
63881;BME280;50046;46.672;11.152;2022-07-29T00:24:37;98287.09;;;17.80;85.25
63881;BME280;50046;46.672;11.152;2022-07-29T00:24:48;98286.31;;;17.79;85.07
63881;BME280;50046;46.672;11.152;2022-07-29T00:24:59;98275.63;;;17.78;85.07
63881;BME280;50046;46.672;11.152;2022-07-29T00:25:09;98284.63;;;17.78;85.34
63881;BME280;50046;46.672;11.152;2022-07-29T00:25:20;98293.16;;;17.77;85.20
63881;BME280;50046;46.672;11.152;2022-07-29T00:25:30;98281.72;;;17.75;85.16
63881;BME280;50046;46.672;11.152;2022-07-29T00:25:41;98282.81;;;17.74;84.52
63881;BME280;50046;46.672;11.152;2022-07-29T00:25:51;98277.34;;;17.74;84.92
63881;BME280;50046;46.672;11.152;2022-07-29T00:26:01;98279.59;;;17.72;84.92
63881;BME280;50046;46.672;11.152;2022-07-29T00:26:12;98275.75;;;17.73;84.83
63881;BME280;50046;46.672;11.152;2022-07-29T00:26:22;98271.88;;;17.74;84.92
63881;BME280;50046;46.672;11.152;2022-07-29T00:26:33;98266.13;;;17.75;84.96
63881;BME280;50046;46.672;11.152;2022-07-29T00:26:43;98274.84;;;17.77;84.99
63881;BME280;50046;46.672;11.152;2022-07-29T00:26:53;98272.41;;;17.76;84.75
63881;BME280;50046;46.672;11.152;2022-07-29T00:27:04;98274.31;;;17.75;85.03
63881;BME280;50046;46.672;11.152;2022-07-29T00:27:16;98282.22;;;17.77;84.96
63881;BME280;50046;46.672;11.152;2022-07-29T00:27:27;98272.41;;;17.76;85.05
63881;BME280;50046;46.672;11.152;2022-07-29T00:27:37;98272.09;;;17.77;85.47
63881;BME280;50046;46.672;11.152;2022-07-29T00:27:48;98275.13;;;17.76;85.76
63881;BME280;50046;46.672;11.152;2022-07-29T00:27:58;98260.66;;;17.75;85.69
63881;BME280;50046;46.672;11.152;2022-07-29T00:28:09;98273.53;;;17.75;85.38
63881;BME280;50046;46.672;11.152;2022-07-29T00:28:19;98294.25;;;17.76;85.22
63881;BME280;50046;46.672;11.152;2022-07-29T00:28:30;98283.66;;;17.74;85.30
63881;BME280;50046;46.672;11.152;2022-07-29T00:28:40;98277.34;;;17.74;84.93
63881;BME280;50046;46.672;11.152;2022-07-29T00:28:50;98268.34;;;17.73;85.21
63881;BME280;50046;46.672;11.152;2022-07-29T00:29:03;98273.81;;;17.73;85.23
63881;BME280;50046;46.672;11.152;2022-07-29T00:29:14;98267.25;;;17.74;85.46
63881;BME280;50046;46.672;11.152;2022-07-29T00:29:24;98284.44;;;17.75;85.42
63881;BME280;50046;46.672;11.152;2022-07-29T00:29:35;98273.31;;;17.71;85.21
63881;BME280;50046;46.672;11.152;2022-07-29T00:29:45;98279.59;;;17.72;85.22
63881;BME280;50046;46.672;11.152;2022-07-29T00:29:56;98280.69;;;17.71;85.66
63881;BME280;50046;46.672;11.152;2022-07-29T00:30:06;98277.34;;;17.74;85.38
63881;BME280;50046;46.672;11.152;2022-07-29T00:30:17;98279.78;;;17.75;85.42
63881;BME280;50046;46.672;11.152;2022-07-29T00:30:28;98275.63;;;17.78;84.94
63881;BME280;50046;46.672;11.152;2022-07-29T00:30:38;98279.97;;;17.79;85.23
63881;BME280;50046;46.672;11.152;2022-07-29T00:30:49;98274.03;;;17.77;85.38
63881;BME280;50046;46.672;11.152;2022-07-29T00:30:59;98277.25;;;17.79;85.41
63881;BME280;50046;46.672;11.152;2022-07-29T00:31:09;98276.19;;;17.80;85.44
63881;BME280;50046;46.672;11.152;2022-07-29T00:31:20;98286.31;;;17.79;85.31
63881;BME280;50046;46.672;11.152;2022-07-29T00:31:31;98283.03;;;17.77;84.99
63881;BME280;50046;46.672;11.152;2022-07-29T00:31:41;98284.97;;;17.77;85.34
63881;BME280;50046;46.672;11.152;2022-07-29T00:31:51;98291.50;;;17.76;85.23
63881;BME280;50046;46.672;11.152;2022-07-29T00:32:02;98291.50;;;17.76;85.33
63881;BME280;50046;46.672;11.152;2022-07-29T00:32:13;98296.97;;;17.76;85.17
63881;BME280;50046;46.672;11.152;2022-07-29T00:32:23;98295.38;;;17.75;85.45
63881;BME280;50046;46.672;11.152;2022-07-29T00:32:33;98299.72;;;17.76;85.47
63881;BME280;50046;46.672;11.152;2022-07-29T00:32:44;98296.19;;;17.75;85.69
63881;BME280;50046;46.672;11.152;2022-07-29T00:32:54;98296.19;;;17.75;86.25
63881;BME280;50046;46.672;11.152;2022-07-29T00:33:05;98297.31;;;17.74;85.93
63881;BME280;50046;46.672;11.152;2022-07-29T00:33:15;98300.84;;;17.75;86.36
63881;BME280;50046;46.672;11.152;2022-07-29T00:33:26;98301.94;;;17.74;86.28
63881;BME280;50046;46.672;11.152;2022-07-29T00:33:36;98303.84;;;17.73;86.01
63881;BME280;50046;46.672;11.152;2022-07-29T00:33:47;98303.56;;;17.75;86.62
63881;BME280;50046;46.672;11.152;2022-07-29T00:33:57;98307.41;;;17.74;86.27
63881;BME280;50046;46.672;11.152;2022-07-29T00:34:08;98307.91;;;17.76;86.70
63881;BME280;50046;46.672;11.152;2022-07-29T00:34:38;98308.41;;;17.78;86.72
63881;BME280;50046;46.672;11.152;2022-07-29T00:35:08;98308.84;;;17.85;87.05
63881;BME280;50046;46.672;11.152;2022-07-29T00:35:37;98312.59;;;17.89;87.23
63881;BME280;50046;46.672;11.152;2022-07-29T00:35:53;98314.84;;;17.87;87.11
63881;BME280;50046;46.672;11.152;2022-07-29T00:36:04;98311.78;;;17.89;87.30
63881;BME280;50046;46.672;11.152;2022-07-29T00:36:14;98314.50;;;17.89;87.05
63881;BME280;50046;46.672;11.152;2022-07-29T00:36:25;98319.69;;;17.90;87.39
63881;BME280;50046;46.672;11.152;2022-07-29T00:36:35;98322.94;;;17.92;87.49
63881;BME280;50046;46.672;11.152;2022-07-29T00:36:45;98318.78;;;17.95;87.80
63881;BME280;50046;46.672;11.152;2022-07-29T00:36:56;98316.84;;;17.95;88.09
63881;BME280;50046;46.672;11.152;2022-07-29T00:37:07;98316.84;;;17.95;88.23
63881;BME280;50046;46.672;11.152;2022-07-29T00:37:17;98323.13;;;17.96;88.34
63881;BME280;50046;46.672;11.152;2022-07-29T00:37:28;98322.31;;;17.95;88.32
63881;BME280;50046;46.672;11.152;2022-07-29T00:37:38;98316.84;;;17.95;88.09
63881;BME280;50046;46.672;11.152;2022-07-29T00:37:49;98322.31;;;17.95;87.94
63881;BME280;50046;46.672;11.152;2022-07-29T00:37:59;98320.91;;;17.98;88.03
63881;BME280;50046;46.672;11.152;2022-07-29T00:38:14;98320.09;;;17.97;87.98
63881;BME280;50046;46.672;11.152;2022-07-29T00:38:24;98316.22;;;17.98;88.00
63881;BME280;50046;46.672;11.152;2022-07-29T00:38:35;98318.97;;;17.98;88.30
63881;BME280;50046;46.672;11.152;2022-07-29T00:38:46;98312.38;;;17.99;88.67
63881;BME280;50046;46.672;11.152;2022-07-29T00:38:56;98312.88;;;18.01;88.77
63881;BME280;50046;46.672;11.152;2022-07-29T00:39:07;98311.28;;;18.00;89.06
63881;BME280;50046;46.672;11.152;2022-07-29T00:39:17;98313.69;;;18.02;89.32
63881;BME280;50046;46.672;11.152;2022-07-29T00:39:27;98313.41;;;18.03;89.23
63881;BME280;50046;46.672;11.152;2022-07-29T00:39:38;98309.06;;;18.02;89.32
63881;BME280;50046;46.672;11.152;2022-07-29T00:39:48;98315.00;;;18.04;89.40
63881;BME280;50046;46.672;11.152;2022-07-29T00:39:59;98315.84;;;18.05;89.44
63881;BME280;50046;46.672;11.152;2022-07-29T00:40:10;98312.28;;;18.04;89.52
63881;BME280;50046;46.672;11.152;2022-07-29T00:40:21;98313.09;;;18.05;89.81
63881;BME280;50046;46.672;11.152;2022-07-29T00:40:31;98313.91;;;18.06;89.69
63881;BME280;50046;46.672;11.152;2022-07-29T00:40:43;98314.72;;;18.06;89.60
63881;BME280;50046;46.672;11.152;2022-07-29T00:40:53;98311.69;;;18.08;89.76
63881;BME280;50046;46.672;11.152;2022-07-29T00:41:04;98307.81;;;18.09;89.36
63881;BME280;50046;46.672;11.152;2022-07-29T00:41:15;98312.47;;;18.08;89.48
63881;BME280;50046;46.672;11.152;2022-07-29T00:41:25;98308.94;;;18.08;89.73
63881;BME280;50046;46.672;11.152;2022-07-29T00:41:36;98307.81;;;18.09;89.55
63881;BME280;50046;46.672;11.152;2022-07-29T00:41:46;98307.81;;;18.09;90.13
63881;BME280;50046;46.672;11.152;2022-07-29T00:41:56;98299.63;;;18.09;89.83
63881;BME280;50046;46.672;11.152;2022-07-29T00:42:07;98300.75;;;18.08;89.91
63881;BME280;50046;46.672;11.152;2022-07-29T00:42:18;98307.31;;;18.07;89.76
63881;BME280;50046;46.672;11.152;2022-07-29T00:42:28;98299.91;;;18.07;89.80
63881;BME280;50046;46.672;11.152;2022-07-29T00:42:46;98301.56;;;18.08;89.73
63881;BME280;50046;46.672;11.152;2022-07-29T00:42:57;98297.19;;;18.07;90.11
63881;BME280;50046;46.672;11.152;2022-07-29T00:43:08;98301.03;;;18.06;89.58
63881;BME280;50046;46.672;11.152;2022-07-29T00:43:18;98297.69;;;18.09;89.70
63881;BME280;50046;46.672;11.152;2022-07-29T00:43:29;98294.97;;;18.09;89.68
63881;BME280;50046;46.672;11.152;2022-07-29T00:43:39;98297.91;;;18.13;89.61
63881;BME280;50046;46.672;11.152;2022-07-29T00:43:50;98298.19;;;18.11;89.39
63881;BME280;50046;46.672;11.152;2022-07-29T00:44:01;98295.97;;;18.13;89.69
63881;BME280;50046;46.672;11.152;2022-07-29T00:44:11;98290.69;;;18.17;89.57
63881;BME280;50046;46.672;11.152;2022-07-29T00:44:21;98298.38;;;18.15;89.63
63881;BME280;50046;46.672;11.152;2022-07-29T00:44:39;98294.84;;;18.14;89.64
63881;BME280;50046;46.672;11.152;2022-07-29T00:44:50;98288.78;;;18.17;89.25
63881;BME280;50046;46.672;11.152;2022-07-29T00:45:01;98295.38;;;18.16;89.41
63881;BME280;50046;46.672;11.152;2022-07-29T00:45:12;98298.09;;;18.16;89.51
63881;BME280;50046;46.672;11.152;2022-07-29T00:45:23;98296.56;;;18.24;89.20
63881;BME280;50046;46.672;11.152;2022-07-29T00:45:34;98291.91;;;18.24;89.31
63881;BME280;50046;46.672;11.152;2022-07-29T00:45:44;98296.56;;;18.24;89.19
63881;BME280;50046;46.672;11.152;2022-07-29T00:45:55;98291.72;;;18.21;89.38
63881;BME280;50046;46.672;11.152;2022-07-29T00:46:05;98298.00;;;18.21;89.29
63881;BME280;50046;46.672;11.152;2022-07-29T00:46:16;98297.69;;;18.23;89.52
63881;BME280;50046;46.672;11.152;2022-07-29T00:46:26;98298.16;;;18.25;89.52
63881;BME280;50046;46.672;11.152;2022-07-29T00:46:37;98297.38;;;18.24;89.25
63881;BME280;50046;46.672;11.152;2022-07-29T00:46:47;98290.81;;;18.25;89.48
63881;BME280;50046;46.672;11.152;2022-07-29T00:46:58;98299.00;;;18.25;89.35
63881;BME280;50046;46.672;11.152;2022-07-29T00:47:10;98296.56;;;18.24;89.36
63881;BME280;50046;46.672;11.152;2022-07-29T00:47:20;98291.91;;;18.24;89.64
63881;BME280;50046;46.672;11.152;2022-07-29T00:47:31;98298.16;;;18.25;89.15
63881;BME280;50046;46.672;11.152;2022-07-29T00:47:41;98298.16;;;18.25;89.44
63881;BME280;50046;46.672;11.152;2022-07-29T00:47:52;98293.84;;;18.24;89.29
63881;BME280;50046;46.672;11.152;2022-07-29T00:48:03;98294.63;;;18.24;89.52
63881;BME280;50046;46.672;11.152;2022-07-29T00:48:14;98286.66;;;18.28;88.78
63881;BME280;50046;46.672;11.152;2022-07-29T00:48:25;98298.38;;;18.29;88.35
63881;BME280;50046;46.672;11.152;2022-07-29T00:48:35;98301.31;;;18.32;88.38
63881;BME280;50046;46.672;11.152;2022-07-29T00:48:46;98301.81;;;18.34;88.13
63881;BME280;50046;46.672;11.152;2022-07-29T00:48:57;98294.75;;;18.33;87.98
63881;BME280;50046;46.672;11.152;2022-07-29T00:49:07;98297.75;;;18.32;88.16
63881;BME280;50046;46.672;11.152;2022-07-29T00:49:18;98295.31;;;18.30;88.48
63881;BME280;50046;46.672;11.152;2022-07-29T00:49:28;98296.16;;;18.31;88.55
63881;BME280;50046;46.672;11.152;2022-07-29T00:49:40;98295.31;;;18.30;88.60
63881;BME280;50046;46.672;11.152;2022-07-29T00:49:51;98292.13;;;18.28;89.36
63881;BME280;50046;46.672;11.152;2022-07-29T00:50:03;98295.94;;;18.27;89.16
63881;BME280;50046;46.672;11.152;2022-07-29T00:50:14;98289.69;;;18.27;88.65
63881;BME280;50046;46.672;11.152;2022-07-29T00:50:24;98295.44;;;18.25;88.36
63881;BME280;50046;46.672;11.152;2022-07-29T00:50:36;98290.81;;;18.25;88.64
63881;BME280;50046;46.672;11.152;2022-07-29T00:50:49;98291.72;;;18.21;88.75
63881;BME280;50046;46.672;11.152;2022-07-29T00:51:01;98293.03;;;18.23;88.67
63881;BME280;50046;46.672;11.152;2022-07-29T00:51:12;98296.47;;;18.29;88.55
63881;BME280;50046;46.672;11.152;2022-07-29T00:51:25;98300.78;;;18.30;88.07
63881;BME280;50046;46.672;11.152;2022-07-29T00:51:36;98301.63;;;18.31;87.93
63881;BME280;50046;46.672;11.152;2022-07-29T00:51:48;98294.84;;;18.28;87.72
63881;BME280;50046;46.672;11.152;2022-07-29T00:52:02;98296.84;;;18.22;87.70
63881;BME280;50046;46.672;11.152;2022-07-29T00:52:13;98301.22;;;18.23;87.52
63881;BME280;50046;46.672;11.152;2022-07-29T00:52:23;98295.53;;;18.20;87.55
63881;BME280;50046;46.672;11.152;2022-07-29T00:52:37;98301.53;;;18.22;87.44
63881;BME280;50046;46.672;11.152;2022-07-29T00:52:51;98292.81;;;18.20;87.05
63881;BME280;50046;46.672;11.152;2022-07-29T00:53:03;98297.69;;;18.23;87.09
63881;BME280;50046;46.672;11.152;2022-07-29T00:53:14;98294.44;;;18.21;87.12
63881;BME280;50046;46.672;11.152;2022-07-29T00:53:25;98292.72;;;18.25;87.19
63881;BME280;50046;46.672;11.152;2022-07-29T00:53:36;98300.31;;;18.28;86.67
63881;BME280;50046;46.672;11.152;2022-07-29T00:53:47;98302.84;;;18.24;86.60
63881;BME280;50046;46.672;11.152;2022-07-29T00:54:02;98297.06;;;18.26;86.45
63881;BME280;50046;46.672;11.152;2022-07-29T00:54:12;98304.84;;;18.33;85.88
63881;BME280;50046;46.672;11.152;2022-07-29T00:54:23;98298.06;;;18.30;85.44
63881;BME280;50046;46.672;11.152;2022-07-29T00:54:34;98297.75;;;18.32;85.34
63881;BME280;50046;46.672;11.152;2022-07-29T00:54:45;98299.38;;;18.33;84.99
63881;BME280;50046;46.672;11.152;2022-07-29T00:54:56;98300.00;;;18.30;85.32
63881;BME280;50046;46.672;11.152;2022-07-29T00:55:09;98303.75;;;18.34;85.18
63881;BME280;50046;46.672;11.152;2022-07-29T00:55:20;98307.56;;;18.33;84.95
63881;BME280;50046;46.672;11.152;2022-07-29T00:55:31;98304.34;;;18.31;85.00
63881;BME280;50046;46.672;11.152;2022-07-29T00:55:42;98303.84;;;18.29;84.93
63881;BME280;50046;46.672;11.152;2022-07-29T00:55:54;98305.78;;;18.28;84.93
63881;BME280;50046;46.672;11.152;2022-07-29T00:56:05;98303.84;;;18.29;85.16
63881;BME280;50046;46.672;11.152;2022-07-29T00:56:15;98303.34;;;18.27;84.76
63881;BME280;50046;46.672;11.152;2022-07-29T00:56:26;98309.31;;;18.29;84.95
63881;BME280;50046;46.672;11.152;2022-07-29T00:56:36;98299.38;;;18.33;84.89
63881;BME280;50046;46.672;11.152;2022-07-29T00:56:47;98303.22;;;18.32;84.59
63881;BME280;50046;46.672;11.152;2022-07-29T00:56:58;98304.66;;;18.29;84.40
63881;BME280;50046;46.672;11.152;2022-07-29T00:57:09;98309.00;;;18.30;84.53
63881;BME280;50046;46.672;11.152;2022-07-29T00:57:19;98306.59;;;18.29;84.39
63881;BME280;50046;46.672;11.152;2022-07-29T00:57:30;98308.50;;;18.28;84.41